createdAt,value
2023-04-22T01:06:36.938Z,15.22
2023-04-22T01:17:29.691Z,15.16
2023-04-22T02:36:27.951Z,14.82
2023-04-22T03:41:19.202Z,14.68
2023-04-22T05:16:30.318Z,13.54
2023-04-22T05:38:42.074Z,13.24
2023-04-22T06:07:21.699Z,13.30
2023-04-22T07:37:02.334Z,15.37
2023-04-22T07:39:48.312Z,15.53
2023-04-22T07:42:17.913Z,15.59
2023-04-22T07:56:41.753Z,16.03
2023-04-22T08:00:04.710Z,16.09
2023-04-22T08:02:44.804Z,16.08
2023-04-22T08:05:18.352Z,16.20
2023-04-22T08:07:57.809Z,16.27
2023-04-22T08:10:29.493Z,16.28
2023-04-22T08:12:57.213Z,16.32
2023-04-22T08:15:32.053Z,16.38
2023-04-22T08:18:01.356Z,16.48
2023-04-22T08:20:30.233Z,16.56
2023-04-22T08:23:01.198Z,16.53
2023-04-22T08:25:32.858Z,16.71
2023-04-22T08:28:04.056Z,16.71
2023-04-22T08:30:35.908Z,16.81
2023-04-22T08:33:05.037Z,16.82
2023-04-22T08:35:38.005Z,16.88
2023-04-22T08:38:12.158Z,16.96
2023-04-22T08:40:51.194Z,17.12
2023-04-22T08:43:18.877Z,17.12
2023-04-22T08:45:48.218Z,17.13
2023-04-22T08:48:17.308Z,17.33
2023-04-22T08:50:49.756Z,17.44
2023-04-22T08:53:17.475Z,17.45
2023-04-22T09:20:32.884Z,18.22
2023-04-22T09:23:04.789Z,18.20
2023-04-22T09:25:36.527Z,18.33
2023-04-22T11:39:09.933Z,22.35
2023-04-22T11:41:37.778Z,22.42
2023-04-22T11:44:06.570Z,22.41
2023-04-22T12:40:31.537Z,23.30
2023-04-22T12:43:17.420Z,23.36
